Time;durP1;ratioP1;P1;durP2;ratioP2;P2;SDS_P1;SDS_P2;PMS_P1;PMS_P2;Temp;Humidity;BMP_temperature;BMP_pressure;BME280_temperature;BME280_humidity;BME280_pressure;Samples;Min_cycle;Max_cycle;Signal;HPM_P1;HPM_P2
2021/09/24 00:02:19;;;;;;;16.90;3.15;;;14.00;99.90;;;;;;4983723;28;20042;-67
2021/09/24 00:04:46;;;;;;;15.77;1.90;;;14.00;99.90;;;;;;4984264;28;20504;-67
2021/09/24 00:07:12;;;;;;;15.15;2.28;;;14.10;99.90;;;;;;4986243;28;20042;-66
2021/09/24 00:09:38;;;;;;;21.13;2.58;;;14.00;99.90;;;;;;4983794;28;20046;-67
2021/09/24 00:12:04;;;;;;;17.02;2.10;;;14.00;99.90;;;;;;4984649;28;20049;-67
2021/09/24 00:14:29;;;;;;;17.55;2.85;;;14.00;99.90;;;;;;4983575;28;20058;-67
2021/09/24 00:16:55;;;;;;;18.60;2.33;;;14.10;99.90;;;;;;4986719;28;20392;-67
2021/09/24 00:19:20;;;;;;;11.20;2.15;;;14.10;99.90;;;;;;4985876;28;20039;-67
2021/09/24 00:21:46;;;;;;;17.00;2.35;;;14.10;99.90;;;;;;4983386;28;20045;-67
2021/09/24 00:24:11;;;;;;;17.63;2.30;;;14.10;99.90;;;;;;4967735;28;20038;-67
2021/09/24 00:26:37;;;;;;;17.60;2.47;;;14.10;99.90;;;;;;4984938;28;20431;-67
2021/09/24 00:29:03;;;;;;;17.30;2.58;;;14.10;99.90;;;;;;4983614;28;20046;-67
2021/09/24 00:31:29;;;;;;;14.65;2.53;;;14.10;99.90;;;;;;4984078;28;20104;-67
2021/09/24 00:33:54;;;;;;;17.77;2.53;;;14.20;99.90;;;;;;4984728;28;20085;-67
2021/09/24 00:36:20;;;;;;;12.70;2.00;;;14.20;99.90;;;;;;4983590;28;20093;-67
2021/09/24 00:38:45;;;;;;;11.70;1.90;;;14.20;99.90;;;;;;4966603;28;20112;-67
2021/09/24 00:41:11;;;;;;;8.93;1.10;;;14.10;99.90;;;;;;4985440;28;20067;-67
2021/09/24 00:43:37;;;;;;;12.30;1.90;;;14.10;99.90;;;;;;4984165;28;20038;-67
2021/09/24 00:46:03;;;;;;;12.07;1.75;;;14.10;99.90;;;;;;4986174;28;20039;-67
2021/09/24 00:48:30;;;;;;;13.43;2.25;;;14.10;99.90;;;;;;4983334;28;20034;-67
2021/09/24 00:50:56;;;;;;;11.10;1.60;;;14.20;99.90;;;;;;4969379;28;20459;-67
2021/09/24 00:53:24;;;;;;;10.93;1.48;;;14.10;99.90;;;;;;4989565;28;20551;-67
2021/09/24 00:55:49;;;;;;;13.20;2.20;;;14.10;99.90;;;;;;4987179;28;20138;-67
2021/09/24 00:58:15;;;;;;;17.45;2.40;;;14.10;99.90;;;;;;4989406;28;20058;-67
2021/09/24 01:00:41;;;;;;;10.57;1.42;;;14.10;99.90;;;;;;4989579;28;20073;-67
2021/09/24 01:03:07;;;;;;;17.15;1.63;;;14.10;99.90;;;;;;4988994;28;20121;-67
2021/09/24 01:05:32;;;;;;;11.05;1.85;;;14.10;99.90;;;;;;4989273;28;20042;-67
2021/09/24 01:07:58;;;;;;;17.08;1.65;;;14.00;99.90;;;;;;4987833;28;20586;-67
2021/09/24 01:10:24;;;;;;;14.88;2.20;;;14.00;99.90;;;;;;4986971;28;20050;-67
2021/09/24 01:12:54;;;;;;;15.35;1.90;;;14.00;99.90;;;;;;4988800;28;21387;-67
2021/09/24 01:15:20;;;;;;;12.02;1.50;;;14.00;99.90;;;;;;4988335;28;20125;-67
2021/09/24 01:17:47;;;;;;;13.75;1.95;;;14.00;99.90;;;;;;4987269;28;20047;-67
2021/09/24 01:20:15;;;;;;;9.52;2.03;;;14.00;99.90;;;;;;4989181;28;20477;-67
2021/09/24 01:22:41;;;;;;;12.13;2.38;;;14.00;99.90;;;;;;4987850;28;20460;-66
2021/09/24 01:25:09;;;;;;;12.85;1.67;;;14.00;99.90;;;;;;4988141;28;20105;-67
2021/09/24 01:27:35;;;;;;;12.68;2.15;;;14.00;99.90;;;;;;4987548;28;20058;-67
2021/09/24 01:30:03;;;;;;;15.82;2.20;;;14.00;99.90;;;;;;4986155;28;20046;-67
2021/09/24 01:32:28;;;;;;;14.52;2.25;;;14.00;99.90;;;;;;4987837;28;20165;-67
2021/09/24 01:34:54;;;;;;;15.85;2.13;;;14.00;99.90;;;;;;4986364;28;20082;-67
2021/09/24 01:37:19;;;;;;;14.65;2.47;;;14.00;99.90;;;;;;4986519;28;20055;-67
2021/09/24 01:39:45;;;;;;;13.25;2.50;;;14.00;99.90;;;;;;4987176;28;20042;-67
2021/09/24 01:42:11;;;;;;;14.38;2.50;;;14.00;99.90;;;;;;4988594;28;20046;-67
2021/09/24 01:44:36;;;;;;;9.95;1.40;;;14.00;99.90;;;;;;4986609;28;20941;-67
2021/09/24 01:47:02;;;;;;;7.40;1.85;;;14.00;99.90;;;;;;4986612;28;20053;-67
2021/09/24 01:49:28;;;;;;;10.48;1.52;;;14.00;99.90;;;;;;4988058;28;20042;-67
2021/09/24 01:51:53;;;;;;;15.02;2.22;;;14.00;99.90;;;;;;4986990;28;20037;-67
2021/09/24 01:54:20;;;;;;;11.23;1.70;;;14.00;99.90;;;;;;5001812;28;20810;-67
2021/09/24 01:56:47;;;;;;;12.13;2.05;;;14.00;99.90;;;;;;4988892;28;20408;-67
2021/09/24 01:59:12;;;;;;;12.55;1.73;;;14.10;99.90;;;;;;4987026;28;20042;-67
2021/09/24 02:01:38;;;;;;;12.85;2.53;;;14.00;99.90;;;;;;4987588;28;20042;-67
2021/09/24 02:04:04;;;;;;;15.00;1.90;;;14.10;99.90;;;;;;4986223;28;20035;-67
2021/09/24 02:06:31;;;;;;;14.15;1.92;;;14.00;99.90;;;;;;4988088;28;20030;-67
2021/09/24 02:08:57;;;;;;;13.07;1.70;;;14.10;99.90;;;;;;4987702;28;20101;-67
2021/09/24 02:11:23;;;;;;;9.18;1.70;;;14.10;99.90;;;;;;4988204;28;20135;-67
2021/09/24 02:13:48;;;;;;;12.95;2.42;;;14.10;99.90;;;;;;4985999;28;20054;-67
2021/09/24 02:16:14;;;;;;;15.63;1.95;;;14.10;99.90;;;;;;4988173;28;20038;-67
2021/09/24 02:18:41;;;;;;;14.27;1.90;;;14.10;99.90;;;;;;4987794;28;20490;-67
2021/09/24 02:21:07;;;;;;;14.02;2.03;;;14.10;99.90;;;;;;4984051;28;20049;-67
2021/09/24 02:23:34;;;;;;;10.23;1.58;;;14.10;99.90;;;;;;4985872;28;20096;-67
2021/09/24 02:25:59;;;;;;;10.88;1.92;;;14.20;99.90;;;;;;4987657;28;20034;-67
2021/09/24 02:28:25;;;;;;;14.15;1.50;;;14.20;99.90;;;;;;4989099;28;20085;-67
2021/09/24 02:30:52;;;;;;;13.52;2.35;;;14.20;99.90;;;;;;4986167;28;20048;-67
2021/09/24 02:33:18;;;;;;;15.38;1.95;;;14.20;99.90;;;;;;4991444;28;20116;-67
2021/09/24 02:35:43;;;;;;;11.77;1.98;;;14.20;99.90;;;;;;4989185;28;20054;-67
2021/09/24 02:38:09;;;;;;;10.27;1.98;;;14.20;99.90;;;;;;4986212;28;20061;-67
2021/09/24 02:40:35;;;;;;;18.33;2.45;;;14.20;99.90;;;;;;4989379;28;20073;-67
2021/09/24 02:43:00;;;;;;;7.80;1.48;;;14.20;99.90;;;;;;4990687;28;20038;-67
2021/09/24 02:45:26;;;;;;;14.27;1.80;;;14.20;99.90;;;;;;4989248;28;20097;-67
2021/09/24 02:47:53;;;;;;;11.73;1.48;;;14.20;99.90;;;;;;4991698;28;20054;-67
2021/09/24 02:50:18;;;;;;;14.35;2.30;;;14.20;99.90;;;;;;4987644;28;20173;-67
2021/09/24 02:52:44;;;;;;;16.85;1.77;;;14.30;99.90;;;;;;4989947;28;20125;-67
2021/09/24 02:55:10;;;;;;;15.68;2.08;;;14.30;99.90;;;;;;4988696;28;20054;-67
2021/09/24 02:57:36;;;;;;;12.15;2.22;;;14.20;99.90;;;;;;4990226;28;20047;-67
2021/09/24 03:00:06;;;;;;;10.63;1.80;;;14.30;99.90;;;;;;4989957;28;20393;-67
2021/09/24 03:02:32;;;;;;;10.55;1.52;;;14.30;99.90;;;;;;4988476;28;20077;-67
2021/09/24 03:04:57;;;;;;;10.32;1.23;;;14.30;99.90;;;;;;4985942;28;20041;-67
2021/09/24 03:07:24;;;;;;;7.28;1.42;;;14.30;99.90;;;;;;4989225;28;20042;-67
2021/09/24 03:09:49;;;;;;;10.93;1.55;;;14.30;99.90;;;;;;4991967;28;20052;-67
2021/09/24 03:12:15;;;;;;;10.80;1.27;;;14.40;99.90;;;;;;4989881;28;20046;-67
2021/09/24 03:14:40;;;;;;;11.85;1.67;;;14.40;99.90;;;;;;4989258;28;20142;-67
2021/09/24 03:17:06;;;;;;;13.10;1.65;;;14.40;99.90;;;;;;4985604;28;20050;-67
2021/09/24 03:19:31;;;;;;;15.38;2.15;;;14.30;99.90;;;;;;4989330;28;20140;-67
2021/09/24 03:21:57;;;;;;;12.88;2.10;;;14.40;99.90;;;;;;4986624;28;20049;-67
2021/09/24 03:24:23;;;;;;;9.13;1.52;;;14.40;99.90;;;;;;4988159;28;20057;-67
2021/09/24 03:26:49;;;;;;;6.78;1.25;;;14.40;99.90;;;;;;4989496;28;20385;-67
2021/09/24 03:29:14;;;;;;;10.30;1.50;;;14.40;99.90;;;;;;4988481;28;20516;-67
2021/09/24 03:31:41;;;;;;;12.80;1.60;;;14.40;99.90;;;;;;4987925;28;20053;-67
2021/09/24 03:34:09;;;;;;;8.32;1.27;;;14.50;99.90;;;;;;4987481;28;20042;-66
2021/09/24 03:36:36;;;;;;;9.30;1.15;;;14.50;99.90;;;;;;4984411;28;20054;-67
2021/09/24 03:39:10;;;;;;;11.27;1.55;;;14.50;99.90;;;;;;4984846;28;20046;-67
2021/09/24 03:41:37;;;;;;;11.80;2.50;;;14.50;99.90;;;;;;4984593;28;20046;-67
2021/09/24 03:44:03;;;;;;;9.13;1.42;;;14.50;99.90;;;;;;4985101;28;20061;-67
2021/09/24 03:46:28;;;;;;;8.52;1.42;;;14.50;99.90;;;;;;4985030;28;20516;-67
2021/09/24 03:48:54;;;;;;;11.05;2.03;;;14.60;99.90;;;;;;4986610;28;20508;-67
2021/09/24 03:51:19;;;;;;;10.02;1.88;;;14.60;99.90;;;;;;4984285;28;20385;-67
2021/09/24 03:53:45;;;;;;;11.98;1.85;;;14.60;99.90;;;;;;4983792;28;20092;-67
2021/09/24 03:56:10;;;;;;;10.10;1.55;;;14.60;99.90;;;;;;4984266;28;20489;-67
2021/09/24 03:58:36;;;;;;;10.75;1.48;;;14.60;99.90;;;;;;4983756;28;20046;-67
2021/09/24 04:01:02;;;;;;;15.68;1.67;;;14.60;99.90;;;;;;4985740;28;20493;-67
2021/09/24 04:03:28;;;;;;;10.25;1.60;;;14.50;99.90;;;;;;4985024;28;20413;-67
2021/09/24 04:05:54;;;;;;;8.23;1.27;;;14.60;99.90;;;;;;4985547;28;20042;-67
2021/09/24 04:08:20;;;;;;;11.32;1.70;;;14.60;99.90;;;;;;4984405;28;20184;-67
2021/09/24 04:10:46;;;;;;;12.07;1.98;;;14.60;99.90;;;;;;4984460;28;20129;-67
2021/09/24 04:13:12;;;;;;;10.10;1.02;;;14.60;99.90;;;;;;4983102;28;20038;-67
2021/09/24 04:15:37;;;;;;;10.05;1.73;;;14.60;99.90;;;;;;4984891;28;20042;-67
2021/09/24 04:18:03;;;;;;;7.82;1.63;;;14.60;99.90;;;;;;4982801;28;20070;-67
2021/09/24 04:20:29;;;;;;;11.98;1.83;;;14.70;99.90;;;;;;4984394;28;20488;-67
2021/09/24 04:22:54;;;;;;;9.32;1.10;;;14.60;99.90;;;;;;4985562;28;20042;-67
2021/09/24 04:25:20;;;;;;;8.90;1.48;;;14.70;99.90;;;;;;4983475;28;20042;-67
2021/09/24 04:27:45;;;;;;;10.70;1.48;;;14.70;99.90;;;;;;4984411;28;20038;-67
2021/09/24 04:30:11;;;;;;;7.90;1.48;;;14.70;99.90;;;;;;4985239;28;20093;-66
2021/09/24 04:32:37;;;;;;;8.95;2.35;;;14.70;99.90;;;;;;4968137;28;20203;-67
2021/09/24 04:35:04;;;;;;;12.45;1.45;;;14.80;99.90;;;;;;4985866;28;20044;-67
2021/09/24 04:37:30;;;;;;;7.72;1.20;;;14.80;99.90;;;;;;4982430;28;20609;-67
2021/09/24 04:39:55;;;;;;;13.38;2.15;;;14.80;99.90;;;;;;4997788;28;20093;-66
2021/09/24 04:42:21;;;;;;;15.43;3.08;;;14.80;99.90;;;;;;4986242;28;20046;-67
2021/09/24 04:44:47;;;;;;;10.88;2.03;;;14.80;99.90;;;;;;4984237;28;20041;-67
2021/09/24 04:47:13;;;;;;;10.48;1.58;;;14.80;99.90;;;;;;4985106;28;20049;-67
2021/09/24 04:49:38;;;;;;;12.55;1.70;;;14.80;99.90;;;;;;4968252;28;20038;-67
2021/09/24 04:52:04;;;;;;;13.23;1.67;;;14.80;99.90;;;;;;4984186;28;20088;-67
2021/09/24 04:54:30;;;;;;;11.65;1.85;;;14.80;99.90;;;;;;4983481;28;20085;-67
2021/09/24 04:56:55;;;;;;;10.38;1.90;;;14.80;99.90;;;;;;4985744;28;20038;-67
2021/09/24 04:59:21;;;;;;;9.73;1.70;;;14.80;99.90;;;;;;4988418;28;20077;-67
2021/09/24 05:01:46;;;;;;;9.50;1.92;;;14.80;99.90;;;;;;4987977;28;20038;-67
2021/09/24 05:04:12;;;;;;;9.82;2.78;;;14.80;99.90;;;;;;4987317;28;20038;-67
2021/09/24 05:06:37;;;;;;;12.95;2.13;;;14.80;99.90;;;;;;4988297;28;20181;-67
2021/09/24 05:09:03;;;;;;;12.18;2.22;;;14.80;99.90;;;;;;4986888;28;20088;-67
2021/09/24 05:11:30;;;;;;;8.90;2.45;;;14.90;99.90;;;;;;4982856;28;20104;-66
2021/09/24 05:13:55;;;;;;;13.90;2.85;;;14.90;99.90;;;;;;4984485;28;20038;-67
2021/09/24 05:16:21;;;;;;;22.42;3.72;;;14.90;99.90;;;;;;4984207;28;20045;-67
2021/09/24 05:18:47;;;;;;;12.85;3.17;;;14.90;99.90;;;;;;4985307;28;20480;-67
2021/09/24 05:21:13;;;;;;;13.75;2.55;;;14.90;99.90;;;;;;4982442;28;20974;-67
2021/09/24 05:23:38;;;;;;;10.68;2.70;;;14.90;99.90;;;;;;4984828;28;20046;-67
2021/09/24 05:26:05;;;;;;;11.70;2.75;;;14.90;99.90;;;;;;4984765;28;20038;-67
2021/09/24 05:28:30;;;;;;;11.45;3.22;;;14.90;99.90;;;;;;4983126;28;20034;-66
2021/09/24 05:30:56;;;;;;;9.75;2.60;;;14.90;99.90;;;;;;4983852;28;20084;-67
2021/09/24 05:33:22;;;;;;;16.88;3.58;;;14.90;99.90;;;;;;4981355;28;20042;-67
2021/09/24 05:35:48;;;;;;;13.43;2.65;;;15.00;99.90;;;;;;4984371;28;20412;-67
2021/09/24 05:38:13;;;;;;;8.27;2.80;;;14.90;99.90;;;;;;4983169;28;20078;-67
2021/09/24 05:40:39;;;;;;;13.90;3.05;;;15.00;99.90;;;;;;4987909;28;20053;-67
2021/09/24 05:43:05;;;;;;;13.45;3.08;;;15.00;99.90;;;;;;4986868;28;20453;-67
2021/09/24 05:45:31;;;;;;;16.10;4.07;;;15.00;99.90;;;;;;4985219;28;20038;-67
2021/09/24 05:47:57;;;;;;;11.25;3.22;;;15.00;99.90;;;;;;4986280;28;20042;-67
2021/09/24 05:50:23;;;;;;;10.63;3.72;;;15.00;99.90;;;;;;4985177;28;20050;-67
2021/09/24 05:52:51;;;;;;;16.05;4.28;;;15.00;99.90;;;;;;4985175;28;20046;-67
2021/09/24 05:55:19;;;;;;;19.90;5.38;;;15.00;99.90;;;;;;4988680;28;20053;-67
2021/09/24 05:57:45;;;;;;;15.00;3.40;;;15.00;99.90;;;;;;4987382;28;20050;-67
2021/09/24 06:00:15;;;;;;;17.23;4.00;;;15.00;99.90;;;;;;4985163;28;20073;-67
2021/09/24 06:02:41;;;;;;;16.67;3.10;;;15.00;99.90;;;;;;4984360;28;20069;-67
2021/09/24 06:05:08;;;;;;;12.18;2.80;;;15.00;99.90;;;;;;4984572;28;20484;-67
2021/09/24 06:07:33;;;;;;;12.02;2.88;;;15.00;99.90;;;;;;4985831;28;20121;-67
2021/09/24 06:09:59;;;;;;;11.73;3.15;;;15.00;99.90;;;;;;4987911;28;20440;-67
2021/09/24 06:12:25;;;;;;;11.65;2.50;;;15.00;99.90;;;;;;4988171;28;20066;-67
2021/09/24 06:14:51;;;;;;;12.75;2.53;;;15.00;99.90;;;;;;4985973;28;20045;-67
2021/09/24 06:17:17;;;;;;;12.77;3.50;;;15.00;99.90;;;;;;4985491;28;20054;-67
2021/09/24 06:19:44;;;;;;;11.88;2.72;;;15.00;99.90;;;;;;4988287;28;20030;-67
2021/09/24 06:22:09;;;;;;;12.00;3.03;;;15.00;99.90;;;;;;4986178;28;20042;-67
2021/09/24 06:24:36;;;;;;;13.18;2.92;;;15.00;99.90;;;;;;4986460;28;20034;-67
2021/09/24 06:27:02;;;;;;;17.83;3.50;;;15.00;99.90;;;;;;4985912;28;20057;-67
2021/09/24 06:29:28;;;;;;;21.48;3.97;;;15.00;99.90;;;;;;4987150;28;20798;-67
2021/09/24 06:31:54;;;;;;;12.80;3.13;;;15.10;99.90;;;;;;4985592;28;20185;-67
2021/09/24 06:34:20;;;;;;;13.45;3.10;;;15.10;99.90;;;;;;4987463;28;20091;-67
2021/09/24 06:36:45;;;;;;;19.02;2.85;;;15.10;99.90;;;;;;4984777;28;20050;-67
2021/09/24 06:39:11;;;;;;;14.50;3.25;;;15.10;99.90;;;;;;4987637;28;20049;-67
2021/09/24 06:41:38;;;;;;;11.52;2.80;;;15.10;99.90;;;;;;5002137;28;20031;-67
2021/09/24 06:44:04;;;;;;;11.52;1.95;;;15.10;99.90;;;;;;4986978;28;20038;-67
2021/09/24 06:46:29;;;;;;;14.23;2.83;;;15.10;99.90;;;;;;4986521;28;20092;-67
2021/09/24 06:48:55;;;;;;;9.27;2.80;;;15.10;99.90;;;;;;4985869;28;20474;-67
2021/09/24 06:51:21;;;;;;;12.05;2.97;;;15.20;99.90;;;;;;4987402;28;20078;-67
2021/09/24 06:53:47;;;;;;;14.45;2.50;;;15.20;99.90;;;;;;4986156;28;20054;-67
2021/09/24 06:56:12;;;;;;;12.55;2.55;;;15.20;99.90;;;;;;4984734;28;20051;-67
2021/09/24 06:58:38;;;;;;;8.35;2.78;;;15.30;99.90;;;;;;4987045;28;20049;-67
2021/09/24 07:01:04;;;;;;;9.80;2.28;;;15.30;99.90;;;;;;4984635;28;20077;-67
2021/09/24 07:03:29;;;;;;;8.88;2.13;;;15.30;99.90;;;;;;4985109;28;20044;-67
2021/09/24 07:05:55;;;;;;;11.20;2.70;;;15.30;99.90;;;;;;4986038;28;20126;-67
2021/09/24 07:08:20;;;;;;;7.20;1.98;;;15.30;99.90;;;;;;4985299;28;20462;-67
2021/09/24 07:10:46;;;;;;;8.90;2.17;;;15.40;99.90;;;;;;4987455;28;20038;-67
2021/09/24 07:13:12;;;;;;;7.22;2.35;;;15.40;99.90;;;;;;4985659;28;20046;-67
2021/09/24 07:15:42;;;;;;;11.65;2.55;;;15.40;99.90;;;;;;4984587;28;20697;-67
2021/09/24 07:18:09;;;;;;;10.05;3.20;;;15.40;99.90;;;;;;4983734;28;20055;-67
2021/09/24 07:20:34;;;;;;;9.38;2.17;;;15.50;99.90;;;;;;4983078;28;20043;-67
2021/09/24 07:23:00;;;;;;;9.88;2.42;;;15.50;99.90;;;;;;4985285;28;20037;-67
2021/09/24 07:25:25;;;;;;;10.93;1.88;;;15.50;99.90;;;;;;4977627;28;20057;-67
2021/09/24 07:27:51;;;;;;;7.45;2.35;;;15.50;99.90;;;;;;4985792;28;20152;-67
2021/09/24 07:30:17;;;;;;;5.97;2.42;;;15.50;99.90;;;;;;4984355;28;20069;-67
2021/09/24 07:32:42;;;;;;;13.98;3.45;;;15.50;99.90;;;;;;4984171;28;20041;-67
2021/09/24 07:35:09;;;;;;;8.82;2.22;;;15.50;99.90;;;;;;4984704;28;20758;-67
2021/09/24 07:37:34;;;;;;;11.65;2.60;;;15.60;99.90;;;;;;4985842;28;20078;-67
2021/09/24 07:40:00;;;;;;;8.65;2.47;;;15.60;99.90;;;;;;4983998;28;21421;-67
2021/09/24 07:42:26;;;;;;;10.05;2.83;;;15.60;99.90;;;;;;4982955;28;20125;-67
2021/09/24 07:44:51;;;;;;;12.23;2.22;;;15.60;99.90;;;;;;4983387;28;20129;-67
2021/09/24 07:47:17;;;;;;;9.27;2.45;;;15.60;99.90;;;;;;4965078;28;20799;-67
2021/09/24 07:49:44;;;;;;;7.30;2.00;;;15.70;99.90;;;;;;4982910;28;20121;-67
2021/09/24 07:52:10;;;;;;;9.40;2.28;;;15.70;99.90;;;;;;4964522;28;20053;-67
2021/09/24 07:54:36;;;;;;;10.63;2.35;;;15.70;99.90;;;;;;4983556;28;21329;-67
2021/09/24 07:57:01;;;;;;;12.02;2.20;;;15.70;99.90;;;;;;4983274;28;20045;-67
2021/09/24 07:59:27;;;;;;;9.95;2.80;;;15.80;99.90;;;;;;4983218;28;20061;-67
2021/09/24 08:01:53;;;;;;;9.10;2.22;;;15.80;99.90;;;;;;4983397;28;20050;-67
2021/09/24 08:04:19;;;;;;;11.10;2.55;;;15.80;99.90;;;;;;4997775;28;20049;-67
2021/09/24 08:06:44;;;;;;;10.35;2.28;;;15.90;99.90;;;;;;4982870;28;20038;-67
2021/09/24 08:09:10;;;;;;;8.25;2.17;;;15.90;99.90;;;;;;4982922;28;20034;-67
2021/09/24 08:11:35;;;;;;;11.13;2.22;;;15.90;99.90;;;;;;4966738;28;20137;-67
2021/09/24 08:14:02;;;;;;;10.90;3.35;;;16.00;99.90;;;;;;4985371;28;20477;-67
2021/09/24 08:16:28;;;;;;;8.68;2.63;;;16.00;99.90;;;;;;4983924;28;20054;-67
2021/09/24 08:18:54;;;;;;;8.27;2.85;;;16.00;99.90;;;;;;4982623;28;20057;-67
2021/09/24 08:21:22;;;;;;;9.95;2.40;;;16.10;99.90;;;;;;4983392;28;20037;-67
2021/09/24 08:23:47;;;;;;;9.20;2.83;;;16.10;99.90;;;;;;4966465;28;20081;-67
2021/09/24 08:26:13;;;;;;;8.98;2.60;;;16.10;99.90;;;;;;4981872;28;20137;-67
2021/09/24 08:28:39;;;;;;;6.53;2.33;;;16.10;99.90;;;;;;4983091;28;20046;-67
2021/09/24 08:31:04;;;;;;;10.23;2.67;;;16.20;99.90;;;;;;4982379;28;20043;-67
2021/09/24 08:33:30;;;;;;;8.80;2.67;;;16.20;99.90;;;;;;4983655;28;20074;-67
2021/09/24 08:35:56;;;;;;;10.65;2.33;;;16.20;99.90;;;;;;4984399;28;20440;-67
2021/09/24 08:38:21;;;;;;;7.20;2.30;;;16.20;99.90;;;;;;4983000;28;20373;-67
2021/09/24 08:40:47;;;;;;;10.73;2.50;;;16.20;99.90;;;;;;4984785;28;20035;-67
2021/09/24 08:43:14;;;;;;;9.52;2.65;;;16.20;99.90;;;;;;4983470;28;20042;-67
2021/09/24 08:45:41;;;;;;;6.65;3.03;;;16.20;99.90;;;;;;4983886;28;20038;-67
2021/09/24 08:48:11;;;;;;;7.43;2.80;;;16.20;99.90;;;;;;4982585;28;20487;-67
2021/09/24 08:50:39;;;;;;;11.20;3.03;;;16.30;99.90;;;;;;4981477;28;20148;-67
2021/09/24 08:53:06;;;;;;;9.65;3.65;;;16.30;99.90;;;;;;4981459;28;20038;-67
2021/09/24 08:55:33;;;;;;;13.48;2.65;;;16.30;99.90;;;;;;4983041;28;20046;-67
2021/09/24 08:57:59;;;;;;;9.43;2.80;;;16.30;99.90;;;;;;4981789;28;20412;-67
2021/09/24 09:00:26;;;;;;;14.65;3.75;;;16.40;99.90;;;;;;4982285;28;20155;-67
2021/09/24 09:02:55;;;;;;;12.38;4.07;;;16.40;99.90;;;;;;4983637;28;20035;-67
2021/09/24 09:05:22;;;;;;;10.35;2.70;;;16.40;99.90;;;;;;4982073;28;20047;-67
2021/09/24 09:07:48;;;;;;;6.60;3.10;;;16.40;99.90;;;;;;4982519;28;20046;-67
2021/09/24 09:10:15;;;;;;;10.70;3.63;;;16.50;99.90;;;;;;4982248;28;20047;-67
2021/09/24 09:12:42;;;;;;;9.32;4.25;;;16.50;99.90;;;;;;4980447;28;20614;-68
2021/09/24 09:15:10;;;;;;;9.63;3.60;;;16.50;99.90;;;;;;4983750;28;20125;-67
2021/09/24 09:17:45;;;;;;;8.40;3.65;;;16.60;99.90;;;;;;4982402;28;20062;-67
2021/09/24 09:20:16;;;;;;;12.07;4.57;;;16.60;99.90;;;;;;4980611;28;20085;-67
2021/09/24 09:22:45;;;;;;;10.23;4.40;;;16.60;99.90;;;;;;4984812;28;20488;-68
2021/09/24 09:25:23;;;;;;;12.50;5.60;;;16.60;99.90;;;;;;4986218;28;20034;-67
2021/09/24 09:27:50;;;;;;;8.80;4.45;;;16.70;99.90;;;;;;4982972;28;20054;-67
2021/09/24 09:30:16;;;;;;;21.83;4.45;;;16.70;99.90;;;;;;4985660;28;20049;-67
2021/09/24 09:33:04;;;;;;;12.98;4.75;;;16.70;99.90;;;;;;4987486;28;20056;-68
2021/09/24 09:35:38;;;;;;;13.13;5.45;;;16.80;99.90;;;;;;4982883;28;20054;-67
2021/09/24 09:38:05;;;;;;;12.18;5.22;;;16.80;99.90;;;;;;4985941;28;20046;-67
2021/09/24 09:40:31;;;;;;;12.25;4.03;;;16.90;99.90;;;;;;4985299;28;20049;-67
2021/09/24 09:42:57;;;;;;;12.57;5.07;;;17.00;99.90;;;;;;4984712;28;20050;-68
2021/09/24 09:45:25;;;;;;;9.25;4.65;;;17.00;99.90;;;;;;4985975;28;20030;-68
2021/09/24 09:47:51;;;;;;;11.85;5.28;;;17.00;99.90;;;;;;4985534;28;20089;-67
2021/09/24 09:50:27;;;;;;;13.75;5.82;;;17.10;99.90;;;;;;4986202;28;20050;-67
2021/09/24 09:53:07;;;;;;;;;;;17.20;99.90;;;;;;4985155;28;20053;-68
2021/09/24 09:55:36;;;;;;;9.32;5.10;;;17.20;99.90;;;;;;4985077;28;19925;-68
2021/09/24 09:58:06;;;;;;;11.07;5.30;;;17.30;99.90;;;;;;4981490;28;20133;-67
2021/09/24 10:00:34;;;;;;;12.40;5.30;;;17.40;99.90;;;;;;4983808;28;20078;-67
2021/09/24 10:03:13;;;;;;;9.23;5.07;;;17.40;99.90;;;;;;4983854;28;20683;-68
2021/09/24 10:05:43;;;;;;;7.75;4.97;;;17.50;99.90;;;;;;4986798;28;20039;-68
2021/09/24 10:08:24;;;;;;;11.15;5.30;;;17.50;99.90;;;;;;4980823;28;20550;-67
2021/09/24 10:10:55;;;;;;;14.75;6.50;;;17.60;99.90;;;;;;4982439;28;20085;-67
2021/09/24 10:13:22;;;;;;;14.00;6.25;;;17.70;99.90;;;;;;4980005;28;20080;-68
2021/09/24 10:15:48;;;;;;;10.57;5.90;;;17.70;99.90;;;;;;4984513;28;20038;-67
2021/09/24 10:18:14;;;;;;;15.68;6.78;;;17.80;99.90;;;;;;4985968;28;20062;-67
2021/09/24 10:20:39;;;;;;;11.52;6.40;;;17.80;99.90;;;;;;4983218;28;20169;-67
2021/09/24 10:23:07;;;;;;;14.60;6.93;;;17.80;99.90;;;;;;4983198;28;20043;-67
2021/09/24 10:25:34;;;;;;;13.50;6.30;;;17.90;99.90;;;;;;4985861;28;20100;-68
2021/09/24 10:28:06;;;;;;;14.52;7.45;;;17.90;99.90;;;;;;4984286;28;20039;-68
2021/09/24 10:30:35;;;;;;;11.45;7.70;;;18.00;99.90;;;;;;4984711;28;20122;-67
2021/09/24 10:33:04;;;;;;;17.77;8.00;;;18.00;99.90;;;;;;4984323;28;20491;-68
2021/09/24 10:35:52;;;;;;;14.77;7.30;;;18.00;99.90;;;;;;4986704;28;20046;-67
2021/09/24 10:38:23;;;;;;;22.25;8.65;;;18.10;99.90;;;;;;4966362;28;20038;-67
2021/09/24 10:41:03;;;;;;;22.25;9.48;;;18.20;99.90;;;;;;4982975;28;20081;-67
2021/09/24 10:43:46;;;;;;;16.75;8.45;;;18.20;99.90;;;;;;4984483;28;20070;-68
2021/09/24 10:46:24;;;;;;;15.20;8.80;;;18.20;99.90;;;;;;4984544;28;20514;-67
2021/09/24 10:49:23;;;;;;;17.48;9.18;;;18.30;99.90;;;;;;4985175;28;20049;-67
2021/09/24 10:51:59;;;;;;;16.50;9.18;;;18.30;99.90;;;;;;4983860;28;20505;-69
2021/09/24 10:54:28;;;;;;;15.27;9.18;;;18.40;99.90;;;;;;4984142;28;20058;-68
2021/09/24 10:57:01;;;;;;;16.73;8.88;;;18.50;99.90;;;;;;4982907;28;20061;-68
2021/09/24 10:59:33;;;;;;;10.68;8.05;;;18.60;99.90;;;;;;4998835;28;20105;-67
2021/09/24 11:02:20;;;;;;;15.20;8.25;;;18.60;99.90;;;;;;4984323;28;20652;-69
2021/09/24 11:04:47;;;;;;;15.55;8.00;;;18.70;99.90;;;;;;4983001;28;20049;-68
2021/09/24 11:07:30;;;;;;;17.27;9.25;;;18.70;99.90;;;;;;4985885;28;20085;-67
2021/09/24 11:09:57;;;;;;;11.38;8.00;;;18.90;99.90;;;;;;4984257;28;20617;-67
2021/09/24 11:12:24;;;;;;;17.35;8.43;;;18.90;99.90;;;;;;4983099;28;20054;-68
2021/09/24 11:15:09;;;;;;;14.93;7.35;;;18.90;99.90;;;;;;4981532;28;20114;-67
2021/09/24 11:17:46;;;;;;;16.85;7.82;;;19.00;99.90;;;;;;4983240;28;20096;-67
2021/09/24 11:20:30;;;;;;;19.35;6.95;;;19.10;99.90;;;;;;4985305;28;20110;-67
2021/09/24 11:22:57;;;;;;;12.38;6.20;;;19.20;99.90;;;;;;4983516;28;20034;-68
2021/09/24 11:25:23;;;;;;;16.60;7.53;;;19.40;99.90;;;;;;4982233;28;20577;-68
2021/09/24 11:27:49;;;;;;;12.13;6.00;;;19.50;99.90;;;;;;4982163;28;20137;-67
2021/09/24 11:30:24;;;;;;;14.50;6.57;;;19.80;99.90;;;;;;4983479;28;20511;-67
2021/09/24 11:32:59;;;;;;;10.20;4.38;;;20.00;99.90;;;;;;4983534;28;20058;-68
2021/09/24 11:35:38;;;;;;;12.02;4.60;;;20.20;99.90;;;;;;4981705;28;20093;-68
2021/09/24 11:38:12;;;;;;;10.48;3.70;;;20.50;99.90;;;;;;4980913;28;20054;-67
2021/09/24 11:40:38;;;;;;;15.32;4.13;;;20.70;99.90;;;;;;4981447;28;20052;-67
2021/09/24 11:43:04;;;;;;;10.23;2.22;;;20.80;99.90;;;;;;4979873;28;20042;-67
2021/09/24 11:45:32;;;;;;;8.13;2.42;;;21.00;99.90;;;;;;4983392;28;20038;-67
2021/09/24 11:48:04;;;;;;;7.45;1.92;;;21.20;99.90;;;;;;4982242;28;20077;-67
2021/09/24 11:50:31;;;;;;;10.90;2.25;;;21.30;99.90;;;;;;4983217;28;20042;-67
2021/09/24 11:52:59;;;;;;;8.20;2.50;;;21.30;99.90;;;;;;4982749;28;20054;-67
2021/09/24 11:55:31;;;;;;;6.78;1.80;;;21.20;99.90;;;;;;4982975;28;20057;-67
2021/09/24 11:58:04;;;;;;;9.27;3.00;;;21.20;99.90;;;;;;4984145;28;20061;-67
2021/09/24 12:00:36;;;;;;;7.53;2.25;;;21.20;99.90;;;;;;4983281;28;20050;-67
2021/09/24 12:03:14;;;;;;;10.88;2.90;;;21.40;99.90;;;;;;4984764;28;20153;-67
2021/09/24 12:05:52;;;;;;;14.73;3.83;;;21.50;99.90;;;;;;4982747;28;20078;-67
2021/09/24 12:08:26;;;;;;;9.77;3.15;;;21.70;99.90;;;;;;4982355;28;20085;-67
2021/09/24 12:11:08;;;;;;;12.55;3.25;;;21.80;99.90;;;;;;4984877;28;20038;-67
2021/09/24 12:13:46;;;;;;;5.95;2.50;;;22.00;99.90;;;;;;4982292;28;20042;-67
2021/09/24 12:16:18;;;;;;;15.95;2.97;;;22.00;99.90;;;;;;4984291;28;20404;-67
2021/09/24 12:18:45;;;;;;;9.38;4.00;;;21.80;99.90;;;;;;4984892;28;20051;-67
2021/09/24 12:21:12;;;;;;;8.25;2.90;;;21.90;99.90;;;;;;4982812;28;20050;-67
2021/09/24 12:23:38;;;;;;;12.32;3.75;;;22.00;99.90;;;;;;4984961;28;20050;-67
2021/09/24 12:26:08;;;;;;;9.75;3.30;;;22.00;99.90;;;;;;4983805;28;20038;-67
2021/09/24 12:28:34;;;;;;;9.02;3.28;;;22.00;99.90;;;;;;4982098;28;20910;-67
2021/09/24 12:31:00;;;;;;;9.25;3.20;;;21.80;99.90;;;;;;4983242;28;20054;-67
2021/09/24 12:33:26;;;;;;;4.88;2.88;;;21.70;99.90;;;;;;4964441;28;20057;-67
2021/09/24 12:36:07;;;;;;;8.65;2.53;;;21.70;99.90;;;;;;4982962;28;20408;-67
2021/09/24 12:38:35;;;;;;;9.82;3.00;;;21.60;99.90;;;;;;4983467;28;20065;-67
2021/09/24 12:41:08;;;;;;;13.05;3.42;;;21.70;99.90;;;;;;4983624;28;20045;-67
2021/09/24 12:43:35;;;;;;;9.48;3.05;;;21.80;99.90;;;;;;4984052;28;20057;-67